Time;durP1;ratioP1;P1;durP2;ratioP2;P2;SDS_P1;SDS_P2;PMS_P1;PMS_P2;Temp;Humidity;BMP_temperature;BMP_pressure;BME280_temperature;BME280_humidity;BME280_pressure;Samples;Min_cycle;Max_cycle;Signal;HPM_P1;HPM_P2
2023/07/09 00:01:47;;;;;;;6.82;5.60;;;;;;;22.66;64.18;99688.78;5070466;28;20418;-76
2023/07/09 00:04:13;;;;;;;6.07;5.38;;;;;;;22.58;64.37;99670.41;5071724;28;20020;-76
2023/07/09 00:06:42;;;;;;;6.53;5.88;;;;;;;22.07;64.08;99609.84;5071513;28;20024;-77
2023/07/09 00:09:21;;;;;;;7.38;5.72;;;;;;;22.34;64.22;99634.09;5071855;28;20032;-77
2023/07/09 00:11:47;;;;;;;8.02;5.10;;;;;;;22.59;64.40;99688.19;5071783;28;20020;-76
2023/07/09 00:14:14;;;;;;;6.18;4.85;;;;;;;21.36;64.39;99494.19;5071766;28;20028;-76
2023/07/09 00:16:41;;;;;;;6.47;4.40;;;;;;;22.62;64.46;99695.75;5071559;28;20614;-76
2023/07/09 00:19:17;;;;;;;6.00;5.40;;;;;;;22.61;64.58;99701.38;5071765;28;20078;-76
2023/07/09 00:21:44;;;;;;;5.75;4.93;;;;;;;22.55;64.81;99708.59;5071504;28;20040;-76
2023/07/09 00:24:11;;;;;;;6.82;4.63;;;;;;;21.87;64.69;99597.75;5071377;28;20413;-77
2023/07/09 00:26:38;;;;;;;4.50;4.10;;;;;;;22.54;64.58;99701.59;5071358;28;20486;-76
2023/07/09 00:29:04;;;;;;;7.15;4.80;;;;;;;22.15;64.93;99645.16;5071762;28;20103;-76
2023/07/09 00:31:29;;;;;;;6.75;4.88;;;;;;;22.29;64.93;99664.41;5070495;28;20104;-76
2023/07/09 00:33:55;;;;;;;5.45;4.03;;;;;;;22.34;64.85;99663.69;5071572;28;20412;-76
2023/07/09 00:36:31;;;;;;;5.00;4.32;;;;;;;21.71;64.66;99566.38;5071471;28;20024;-76
2023/07/09 00:38:59;;;;;;;5.80;4.10;;;;;;;21.41;64.54;99507.66;5071563;28;20028;-76
2023/07/09 00:41:25;;;;;;;8.07;4.25;;;;;;;22.41;64.80;99669.69;5071290;28;20115;-76
2023/07/09 00:43:52;;;;;;;8.88;4.47;;;;;;;22.55;64.65;99697.81;5071284;28;20029;-76
2023/07/09 00:46:20;;;;;;;5.80;5.15;;;;;;;22.55;64.86;99695.13;5071268;28;20025;-76
2023/07/09 00:48:53;;;;;;;7.38;4.07;;;;;;;22.61;64.50;99687.94;5071306;28;20409;-76
2023/07/09 00:51:22;;;;;;;8.45;5.15;;;;;;;22.36;64.55;99640.03;5071427;28;20024;-77
2023/07/09 00:53:51;;;;;;;5.35;4.05;;;;;;;22.61;64.48;99685.25;5069851;28;20483;-76
2023/07/09 00:56:29;;;;;;;7.25;4.63;;;;;;;22.62;64.38;99689.56;5071171;28;20029;-76
2023/07/09 00:59:00;;;;;;;6.20;4.72;;;;;;;21.64;64.33;99530.00;5070812;28;20536;-76
2023/07/09 01:01:25;;;;;;;5.85;4.72;;;;;;;22.44;64.49;99664.63;5071116;28;20515;-76
2023/07/09 01:03:59;;;;;;;5.70;4.65;;;;;;;22.59;64.42;99692.75;5073900;28;20036;-77
2023/07/09 01:06:32;;;;;;;6.38;4.60;;;;;;;22.56;64.45;99691.38;5075129;28;20021;-76
2023/07/09 01:09:00;;;;;;;4.85;4.35;;;;;;;21.91;64.30;99592.69;5075147;28;20078;-77
2023/07/09 01:11:26;;;;;;;5.88;4.80;;;;;;;22.58;64.27;99691.94;5074953;28;20025;-76
2023/07/09 01:14:04;;;;;;;7.43;4.40;;;;;;;22.36;64.06;99653.50;5074771;28;20032;-76
2023/07/09 01:16:37;;;;;;;5.43;4.53;;;;;;;22.08;63.48;99614.97;5074872;28;20036;-77
2023/07/09 01:19:04;;;;;;;6.38;4.68;;;;;;;22.62;63.03;99701.13;5074982;28;20126;-76
2023/07/09 01:21:30;;;;;;;6.38;4.72;;;;;;;22.48;62.31;99687.25;5074880;28;20107;-76
2023/07/09 01:23:57;;;;;;;7.18;4.28;;;;;;;22.57;61.93;99689.50;5073891;28;20035;-76
2023/07/09 01:26:25;;;;;;;8.20;4.45;;;;;;;22.71;61.58;99710.38;5075218;28;20024;-76
2023/07/09 01:28:52;;;;;;;5.85;4.40;;;;;;;22.73;61.48;99710.13;5073658;28;20488;-77
2023/07/09 01:31:19;;;;;;;6.75;5.15;;;;;;;22.75;61.20;99724.97;5073494;28;20024;-76
2023/07/09 01:33:45;;;;;;;5.90;4.55;;;;;;;22.39;61.17;99650.28;5074831;28;20028;-76
2023/07/09 01:36:16;;;;;;;7.40;4.50;;;;;;;22.00;61.07;99603.81;5074778;28;20555;-76
2023/07/09 01:38:43;;;;;;;5.97;4.45;;;;;;;22.75;61.05;99721.47;5074703;28;20077;-76
2023/07/09 01:41:13;;;;;;;5.10;4.60;;;;;;;22.72;61.20;99720.09;5074833;28;20502;-76
2023/07/09 01:43:41;;;;;;;6.68;4.70;;;;;;;22.68;61.28;99707.38;5074533;28;20035;-77
2023/07/09 01:46:08;;;;;;;5.40;4.95;;;;;;;22.70;61.11;99735.66;5074545;28;20029;-76
2023/07/09 01:48:40;;;;;;;5.20;4.70;;;;;;;22.70;61.24;99719.53;5074302;28;20547;-76
2023/07/09 01:51:07;;;;;;;5.57;4.85;;;;;;;22.70;61.25;99724.91;5074132;28;20102;-76
2023/07/09 01:53:33;;;;;;;5.70;5.07;;;;;;;21.80;61.36;99596.31;5074154;28;20032;-76
2023/07/09 01:55:59;;;;;;;8.48;5.40;;;;;;;22.44;61.62;99718.44;5072848;28;20024;-76
2023/07/09 01:58:24;;;;;;;6.22;5.60;;;;;;;22.27;61.52;99690.75;5073864;28;20050;-76
2023/07/09 02:00:50;;;;;;;6.03;5.00;;;;;;;22.40;61.85;99720.00;5073930;28;20099;-77
2023/07/09 02:03:17;;;;;;;8.25;5.57;;;;;;;21.74;61.68;99605.38;5073911;28;20028;-76
2023/07/09 02:05:43;;;;;;;6.18;5.30;;;;;;;22.42;61.68;99719.75;5073899;28;20025;-76
2023/07/09 02:08:08;;;;;;;6.97;5.20;;;;;;;22.49;61.74;99736.50;5072633;28;20412;-77
2023/07/09 02:10:34;;;;;;;6.55;5.68;;;;;;;22.39;61.71;99726.44;5072627;28;20024;-76
2023/07/09 02:12:59;;;;;;;7.38;5.45;;;;;;;21.79;61.75;99627.75;5073577;28;20032;-77
2023/07/09 02:15:25;;;;;;;8.30;5.78;;;;;;;22.08;61.73;99682.19;5073762;28;20032;-76
2023/07/09 02:17:52;;;;;;;5.80;5.30;;;;;;;20.90;62.07;99512.31;5073832;28;20024;-76
2023/07/09 02:20:19;;;;;;;7.13;5.75;;;;;;;22.21;62.35;99742.84;5073932;28;20031;-76
2023/07/09 02:22:45;;;;;;;5.88;5.13;;;;;;;22.21;62.49;99753.63;5074093;28;20029;-76
2023/07/09 02:25:11;;;;;;;6.65;5.63;;;;;;;22.20;62.50;99733.97;5074006;28;20028;-76
2023/07/09 02:27:37;;;;;;;8.02;5.22;;;;;;;22.23;62.41;99750.69;5073900;28;20077;-76
2023/07/09 02:30:05;;;;;;;7.85;5.53;;;;;;;21.98;62.39;99702.72;5074129;28;20043;-76
2023/07/09 02:32:30;;;;;;;8.00;4.90;;;;;;;22.23;62.37;99767.63;5072471;28;20060;-77
2023/07/09 02:34:56;;;;;;;8.48;5.70;;;;;;;21.92;62.18;99682.22;5073459;28;20113;-76
2023/07/09 02:37:23;;;;;;;6.38;5.68;;;;;;;22.04;62.03;99718.69;5072074;28;20404;-77
2023/07/09 02:39:49;;;;;;;7.25;6.03;;;;;;;22.29;61.88;99757.75;5072196;28;20119;-76
2023/07/09 02:42:17;;;;;;;7.20;5.80;;;;;;;22.24;62.03;99763.06;5073311;28;20111;-76
2023/07/09 02:44:43;;;;;;;6.80;5.50;;;;;;;22.27;61.95;99760.69;5073202;28;20527;-76
2023/07/09 02:47:09;;;;;;;6.65;5.70;;;;;;;21.40;61.82;99626.09;5072954;28;20032;-77
2023/07/09 02:49:35;;;;;;;5.82;5.32;;;;;;;22.15;61.75;99743.84;5073745;28;20408;-76
2023/07/09 02:52:01;;;;;;;9.18;6.38;;;;;;;22.33;61.76;99769.66;5072500;28;20021;-76
2023/07/09 02:54:27;;;;;;;5.95;5.30;;;;;;;22.25;61.59;99760.13;5073288;28;20095;-76
2023/07/09 02:56:52;;;;;;;5.57;5.07;;;;;;;22.22;61.54;99749.06;5073368;28;20025;-76
2023/07/09 02:59:18;;;;;;;6.45;5.68;;;;;;;21.25;61.39;99607.91;5073393;28;20048;-76
2023/07/09 03:01:43;;;;;;;8.30;5.72;;;;;;;21.68;61.30;99676.25;5072158;28;20056;-76
2023/07/09 03:04:09;;;;;;;7.53;5.82;;;;;;;22.19;61.00;99753.88;5073946;28;20110;-77
2023/07/09 03:06:36;;;;;;;9.75;5.25;;;;;;;22.36;60.95;99772.69;5073785;28;20024;-76
2023/07/09 03:09:03;;;;;;;6.88;5.70;;;;;;;22.38;60.74;99772.44;5073215;28;20040;-77
2023/07/09 03:11:31;;;;;;;8.15;5.78;;;;;;;21.96;60.79;99704.84;5073249;28;20405;-76
2023/07/09 03:13:57;;;;;;;8.07;5.78;;;;;;;22.39;60.65;99772.19;5073272;28;20052;-76
2023/07/09 03:16:23;;;;;;;8.23;6.20;;;;;;;22.08;60.46;99724.41;5072986;28;20113;-76
2023/07/09 03:18:49;;;;;;;6.32;5.40;;;;;;;21.53;60.12;99634.63;5072778;28;20275;-77
2023/07/09 03:21:14;;;;;;;6.38;5.60;;;;;;;22.07;60.33;99720.09;5072775;28;20028;-76
2023/07/09 03:23:41;;;;;;;6.90;5.72;;;;;;;21.64;60.21;99654.41;5072679;28;20408;-77
2023/07/09 03:26:06;;;;;;;6.25;5.47;;;;;;;21.80;60.16;99690.38;5071832;28;20026;-76
2023/07/09 03:28:32;;;;;;;9.52;5.93;;;;;;;22.31;60.11;99782.56;5072564;28;20032;-76
2023/07/09 03:30:57;;;;;;;8.18;6.03;;;;;;;21.75;60.11;99701.06;5072315;28;20020;-76
2023/07/09 03:33:23;;;;;;;9.15;6.00;;;;;;;21.99;59.92;99732.03;5072460;28;20024;-76
2023/07/09 03:35:50;;;;;;;6.63;5.32;;;;;;;22.34;59.96;99798.19;5072093;28;20032;-77
2023/07/09 03:38:16;;;;;;;6.40;5.63;;;;;;;22.32;59.92;99786.88;5072197;28;20026;-76
2023/07/09 03:40:41;;;;;;;5.82;4.85;;;;;;;21.58;59.40;99671.53;5072257;28;20111;-77
2023/07/09 03:43:09;;;;;;;5.20;4.70;;;;;;;22.34;59.42;99793.63;5070661;28;20028;-76
2023/07/09 03:45:35;;;;;;;8.02;5.32;;;;;;;21.92;59.27;99717.16;5072127;28;20028;-76
2023/07/09 03:48:01;;;;;;;6.80;5.78;;;;;;;22.16;59.15;99769.69;5072058;28;20028;-76
2023/07/09 03:50:26;;;;;;;7.05;5.43;;;;;;;22.36;59.04;99799.56;5070509;28;20021;-76
2023/07/09 03:52:52;;;;;;;6.47;4.75;;;;;;;22.40;58.87;99794.50;5071930;28;20074;-77
2023/07/09 03:55:18;;;;;;;7.35;4.55;;;;;;;21.69;58.41;99684.06;5071816;28;20028;-77
2023/07/09 03:57:43;;;;;;;7.70;5.00;;;;;;;21.69;58.61;99675.19;5071683;28;20105;-76
2023/07/09 04:00:10;;;;;;;5.97;5.20;;;;;;;22.34;58.14;99784.75;5071944;28;20035;-77
2023/07/09 04:02:36;;;;;;;8.45;5.18;;;;;;;22.39;58.13;99792.88;5071579;28;20586;-76
2023/07/09 04:05:02;;;;;;;6.32;4.53;;;;;;;21.89;57.90;99710.41;5071861;28;20055;-76
2023/07/09 04:07:28;;;;;;;7.25;4.45;;;;;;;21.62;57.64;99651.16;5071710;28;20113;-76
2023/07/09 04:09:54;;;;;;;6.65;4.82;;;;;;;21.76;57.42;99678.50;5070467;28;20075;-76
2023/07/09 04:12:19;;;;;;;5.68;5.13;;;;;;;21.64;57.10;99658.97;5071710;28;20177;-76
2023/07/09 04:14:44;;;;;;;7.63;4.72;;;;;;;22.10;57.25;99733.84;5071697;28;20028;-76
2023/07/09 04:17:10;;;;;;;6.65;4.93;;;;;;;22.61;57.38;99795.59;5071927;28;20036;-76
2023/07/09 04:19:36;;;;;;;8.35;5.30;;;;;;;21.68;57.26;99652.06;5071580;28;20032;-76
2023/07/09 04:22:01;;;;;;;7.80;5.22;;;;;;;22.63;57.27;99823.88;5071368;28;20025;-76
2023/07/09 04:24:27;;;;;;;6.88;5.70;;;;;;;22.58;57.52;99796.09;5070253;28;20021;-76
2023/07/09 04:26:56;;;;;;;6.10;5.20;;;;;;;22.44;57.64;99780.31;5070311;28;20032;-77
2023/07/09 04:29:24;;;;;;;6.80;5.47;;;;;;;22.47;57.22;99793.25;5071403;28;20166;-77
2023/07/09 04:31:49;;;;;;;5.95;5.20;;;;;;;22.64;57.46;99835.44;5071165;28;20102;-77
2023/07/09 04:34:15;;;;;;;6.95;5.85;;;;;;;22.09;57.53;99737.59;5071305;28;20127;-76
2023/07/09 04:36:40;;;;;;;6.53;5.88;;;;;;;22.35;57.59;99784.50;5071532;28;20490;-77
2023/07/09 04:39:06;;;;;;;6.40;5.80;;;;;;;22.57;57.81;99846.41;5071372;28;20036;-76
2023/07/09 04:41:33;;;;;;;10.52;6.38;;;;;;;22.52;57.75;99827.50;5070950;28;20044;-76
2023/07/09 04:43:59;;;;;;;8.07;6.28;;;;;;;22.35;57.77;99807.91;5071297;28;20034;-76
2023/07/09 04:46:24;;;;;;;8.45;5.70;;;;;;;22.15;57.80;99774.25;5071461;28;20028;-76
2023/07/09 04:48:49;;;;;;;8.70;5.90;;;;;;;22.40;57.87;99807.97;5071266;28;20024;-76
2023/07/09 04:51:15;;;;;;;9.70;6.72;;;;;;;21.87;57.91;99725.97;5071050;28;20504;-76
2023/07/09 04:53:42;;;;;;;7.47;5.90;;;;;;;22.44;57.99;99811.78;5070932;28;20495;-77
2023/07/09 04:56:07;;;;;;;7.97;6.18;;;;;;;22.54;57.92;99832.63;5071031;28;20034;-76
2023/07/09 04:58:34;;;;;;;6.80;5.40;;;;;;;22.41;57.95;99815.78;5070860;28;20044;-76
2023/07/09 05:00:59;;;;;;;6.60;5.90;;;;;;;22.54;58.12;99825.38;5070889;28;20028;-77
2023/07/09 05:03:25;;;;;;;10.07;6.75;;;;;;;22.31;58.05;99786.06;5071089;28;20090;-76
2023/07/09 05:05:51;;;;;;;7.85;6.05;;;;;;;22.43;58.10;99807.47;5071359;28;20091;-76
2023/07/09 05:08:17;;;;;;;9.93;6.57;;;;;;;22.65;58.17;99831.69;5070085;28;20032;-76
2023/07/09 05:10:47;;;;;;;7.00;6.15;;;;;;;22.72;58.24;99830.44;5071124;28;20025;-76
2023/07/09 05:13:12;;;;;;;7.93;6.38;;;;;;;22.78;57.38;99821.38;5071420;28;20056;-77
2023/07/09 05:15:45;;;;;;;8.18;6.05;;;;;;;22.81;57.51;99820.91;5071363;28;20052;-76
2023/07/09 05:18:13;;;;;;;9.40;5.88;;;;;;;22.87;57.33;99827.16;5071060;28;20037;-78
2023/07/09 05:20:40;;;;;;;8.25;5.53;;;;;;;22.92;57.04;99826.41;5070919;28;20409;-77
2023/07/09 05:23:05;;;;;;;5.78;5.28;;;;;;;22.58;56.91;99769.97;5070855;28;20050;-76
2023/07/09 05:25:31;;;;;;;7.78;5.00;;;;;;;22.61;56.54;99768.66;5070900;28;20510;-77
2023/07/09 05:27:56;;;;;;;6.20;5.32;;;;;;;22.51;56.70;99745.94;5070895;28;20024;-76
2023/07/09 05:30:22;;;;;;;5.78;5.28;;;;;;;22.95;56.53;99820.50;5070836;28;20417;-76
2023/07/09 05:32:47;;;;;;;7.38;5.28;;;;;;;23.11;56.67;99831.22;5070856;28;20486;-75
2023/07/09 05:35:13;;;;;;;6.53;5.85;;;;;;;22.83;56.46;99791.84;5072577;28;20405;-76
2023/07/09 05:37:39;;;;;;;7.63;5.10;;;;;;;23.05;56.03;99820.66;5074594;28;20182;-76
2023/07/09 05:40:06;;;;;;;6.32;5.30;;;;;;;23.18;56.09;99839.09;5071396;28;20525;-76
2023/07/09 05:42:32;;;;;;;5.22;4.70;;;;;;;23.20;56.37;99836.97;5069615;28;20032;-76
2023/07/09 05:44:58;;;;;;;6.63;5.65;;;;;;;23.23;56.18;99844.56;5071252;28;20059;-77
2023/07/09 05:47:24;;;;;;;6.18;5.18;;;;;;;23.28;55.96;99841.09;5071308;28;20464;-76
2023/07/09 05:49:50;;;;;;;9.55;5.65;;;;;;;22.46;55.80;99702.03;5073383;28;20024;-76
2023/07/09 05:52:20;;;;;;;7.10;5.43;;;;;;;23.31;55.92;99836.00;5073237;28;20408;-76
2023/07/09 05:54:48;;;;;;;7.20;5.43;;;;;;;23.14;55.99;99816.44;5074439;28;20020;-76
2023/07/09 05:57:13;;;;;;;8.95;5.15;;;;;;;23.35;55.82;99845.22;5074984;28;20090;-77
2023/07/09 05:59:39;;;;;;;5.47;4.53;;;;;;;22.41;55.80;99686.66;5076463;28;20136;-77
2023/07/09 06:02:11;;;;;;;7.05;5.28;;;;;;;23.45;55.67;99839.09;5074563;28;20032;-76
2023/07/09 06:04:36;;;;;;;6.05;5.38;;;;;;;23.51;55.64;99858.84;5074072;28;20522;-76
2023/07/09 06:07:03;;;;;;;5.82;5.18;;;;;;;23.53;55.15;99837.84;5072654;28;20170;-77
2023/07/09 06:09:29;;;;;;;7.80;4.85;;;;;;;23.59;55.05;99843.03;5072856;28;20020;-77
2023/07/09 06:11:54;;;;;;;6.57;4.78;;;;;;;23.61;55.25;99840.91;5073974;28;20043;-76
2023/07/09 06:14:20;;;;;;;7.38;4.88;;;;;;;22.93;54.82;99720.31;5072572;28;20028;-77
2023/07/09 06:16:45;;;;;;;4.97;4.38;;;;;;;23.72;54.40;99839.91;5073690;28;20029;-76
2023/07/09 06:19:10;;;;;;;6.40;4.55;;;;;;;23.79;54.69;99837.03;5073674;28;20116;-77
2023/07/09 06:21:36;;;;;;;6.40;4.18;;;;;;;22.84;53.88;99674.19;5073505;28;20021;-76
2023/07/09 06:24:01;;;;;;;7.40;4.47;;;;;;;23.85;53.20;99838.69;5073501;28;20033;-77
2023/07/09 06:26:27;;;;;;;5.45;4.18;;;;;;;23.90;53.22;99836.03;5073731;28;20083;-76
2023/07/09 06:28:52;;;;;;;4.75;4.25;;;;;;;23.94;52.67;99828.25;5072322;28;20539;-76
2023/07/09 06:31:20;;;;;;;5.45;4.38;;;;;;;23.50;52.52;99752.09;5073604;28;20057;-77
2023/07/09 06:33:47;;;;;;;5.25;4.13;;;;;;;24.08;52.80;99824.84;5073545;28;20108;-76
2023/07/09 06:36:12;;;;;;;5.32;4.28;;;;;;;23.27;52.28;99697.50;5072128;28;20390;-76
2023/07/09 06:38:37;;;;;;;7.43;4.10;;;;;;;24.20;52.27;99821.13;5073355;28;20039;-77
2023/07/09 06:41:03;;;;;;;6.93;4.50;;;;;;;24.25;51.62;99816.59;5073221;28;20081;-77
2023/07/09 06:43:29;;;;;;;5.10;3.97;;;;;;;24.13;50.88;99789.00;5071888;28;20509;-77
2023/07/09 06:46:01;;;;;;;6.13;4.10;;;;;;;24.31;50.40;99823.66;5073359;28;20027;-76
2023/07/09 06:48:28;;;;;;;6.85;4.30;;;;;;;24.36;50.10;99814.78;5073208;28;20493;-76
2023/07/09 06:50:55;;;;;;;5.72;4.03;;;;;;;23.88;49.43;99735.72;5073120;28;20031;-76
2023/07/09 06:53:22;;;;;;;5.85;4.13;;;;;;;24.35;49.36;99802.38;5073150;28;20480;-76
2023/07/09 06:55:48;;;;;;;6.47;4.05;;;;;;;24.51;49.04;99816.75;5072924;28;20081;-76
2023/07/09 06:58:16;;;;;;;5.00;4.38;;;;;;;24.57;48.93;99811.13;5072919;28;20044;-76
2023/07/09 07:00:41;;;;;;;4.78;3.97;;;;;;;23.88;48.95;99695.25;5071927;28;20028;-76
2023/07/09 07:03:06;;;;;;;5.50;3.97;;;;;;;24.76;48.70;99830.38;5072928;28;20089;-76
2023/07/09 07:05:32;;;;;;;4.38;3.55;;;;;;;24.79;47.88;99816.34;5072935;28;20414;-77
2023/07/09 07:07:58;;;;;;;6.00;3.67;;;;;;;24.84;47.71;99821.78;5073133;28;20024;-77
2023/07/09 07:10:26;;;;;;;4.82;3.25;;;;;;;24.56;46.85;99771.72;5072686;28;20033;-76
2023/07/09 07:12:52;;;;;;;4.93;3.28;;;;;;;24.93;46.59;99816.69;5072661;28;20020;-76
2023/07/09 07:15:18;;;;;;;7.63;3.35;;;;;;;24.97;45.65;99820.47;5072620;28;20607;-76
2023/07/09 07:17:44;;;;;;;4.25;3.60;;;;;;;25.01;45.14;99817.00;5072688;28;20035;-76
2023/07/09 07:20:11;;;;;;;4.97;3.30;;;;;;;24.90;45.41;99791.00;5072568;28;20043;-78
2023/07/09 07:22:37;;;;;;;5.30;3.45;;;;;;;24.96;45.14;99784.53;5072367;28;20031;-76
2023/07/09 07:25:03;;;;;;;3.97;3.53;;;;;;;24.22;45.50;99668.72;5071182;28;20036;-76
2023/07/09 07:27:29;;;;;;;3.35;3.05;;;;;;;24.81;44.31;99771.00;5072557;28;20052;-76
2023/07/09 07:29:54;;;;;;;5.82;3.58;;;;;;;24.55;44.27;99718.00;5072740;28;20037;-77
2023/07/09 07:32:20;;;;;;;6.60;3.55;;;;;;;25.24;42.98;99813.00;5072330;28;20544;-77
2023/07/09 07:34:47;;;;;;;3.80;3.30;;;;;;;24.42;42.85;99683.38;5072285;28;20489;-76
2023/07/09 07:37:13;;;;;;;5.18;2.85;;;;;;;24.48;42.75;99687.72;5072196;28;20016;-77
2023/07/09 07:39:38;;;;;;;3.42;3.13;;;;;;;25.36;42.46;99809.25;5072028;28;20412;-77
2023/07/09 07:42:04;;;;;;;3.67;3.30;;;;;;;25.45;42.37;99818.47;5072030;28;20498;-77
2023/07/09 07:44:29;;;;;;;3.40;2.75;;;;;;;25.20;42.83;99757.06;5071868;28;20037;-77
2023/07/09 07:46:54;;;;;;;5.10;3.40;;;;;;;25.59;42.69;99811.44;5071809;28;20150;-76
2023/07/09 07:49:20;;;;;;;5.18;3.10;;;;;;;25.48;42.65;99774.66;5071933;28;20025;-76
2023/07/09 07:51:45;;;;;;;6.40;3.55;;;;;;;25.70;42.31;99807.69;5072089;28;20501;-76
2023/07/09 07:54:11;;;;;;;7.45;3.30;;;;;;;25.36;41.74;99747.91;5071884;28;20031;-76
2023/07/09 07:56:37;;;;;;;4.28;2.65;;;;;;;25.13;41.29;99692.47;5071918;28;20024;-76
2023/07/09 07:59:03;;;;;;;4.35;3.08;;;;;;;25.87;41.17;99799.28;5071768;28;20105;-76
2023/07/09 08:01:28;;;;;;;4.43;3.10;;;;;;;25.78;41.11;99771.97;5070341;28;20028;-76
2023/07/09 08:03:54;;;;;;;4.40;3.08;;;;;;;26.05;41.21;99800.63;5071898;28;20087;-75
2023/07/09 08:06:20;;;;;;;7.25;3.08;;;;;;;26.13;41.17;99805.50;5071807;28;20028;-75
2023/07/09 08:08:45;;;;;;;3.40;3.10;;;;;;;26.23;41.00;99813.59;5071856;28;20052;-77
2023/07/09 08:11:11;;;;;;;5.53;3.15;;;;;;;26.13;40.90;99781.94;5071621;28;20071;-78
2023/07/09 08:13:38;;;;;;;4.97;3.67;;;;;;;26.27;40.64;99806.53;5072066;28;20543;-77
2023/07/09 08:16:07;;;;;;;3.72;3.15;;;;;;;25.55;40.83;99673.25;5071858;28;20024;-77
2023/07/09 08:18:33;;;;;;;3.60;3.30;;;;;;;26.25;40.71;99773.53;5071666;28;20028;-77
2023/07/09 08:21:00;;;;;;;5.22;3.22;;;;;;;26.36;40.60;99787.88;5071533;28;20037;-77
2023/07/09 08:23:25;;;;;;;5.28;3.53;;;;;;;26.29;40.48;99771.88;5071539;28;20489;-77
2023/07/09 08:26:00;;;;;;;5.05;3.70;;;;;;;26.53;40.63;99788.34;5071471;28;20055;-77
2023/07/09 08:28:26;;;;;;;8.18;3.85;;;;;;;26.25;40.62;99736.44;5071450;28;20031;-77
2023/07/09 08:30:53;;;;;;;3.10;2.80;;;;;;;25.77;40.02;99645.13;5071516;28;20506;-77
2023/07/09 08:33:18;;;;;;;3.35;3.05;;;;;;;26.75;39.64;99796.09;5071519;28;20031;-77
2023/07/09 08:35:44;;;;;;;4.78;3.05;;;;;;;26.57;39.53;99760.44;5071089;28;20028;-76
2023/07/09 08:38:10;;;;;;;5.22;3.47;;;;;;;26.80;39.13;99787.97;5071140;28;20025;-76
2023/07/09 08:40:47;;;;;;;3.30;3.00;;;;;;;26.65;38.96;99733.84;5071266;28;20514;-76
2023/07/09 08:43:47;;;;;;;4.40;2.80;;;;;;;26.37;38.69;99665.75;5069865;28;20417;-77
2023/07/09 08:46:45;;;;;;;6.25;3.65;;;;;;;27.15;37.78;99779.66;5069970;28;20036;-77
2023/07/09 08:49:29;;;;;;;4.97;3.25;;;;;;;26.92;37.92;99729.66;5067121;28;20098;-76
2023/07/09 08:51:56;;;;;;;3.40;2.88;;;;;;;26.86;38.41;99706.38;5070282;28;20027;-77
2023/07/09 08:54:26;;;;;;;4.63;2.92;;;;;;;27.49;37.87;99779.69;5072916;28;20020;-76
2023/07/09 08:56:52;;;;;;;4.43;3.55;;;;;;;27.62;37.75;99781.00;5072023;28;20025;-76
2023/07/09 08:59:19;;;;;;;3.63;2.65;;;;;;;26.62;37.87;99601.69;5070108;28;20052;-76
2023/07/09 09:01:59;;;;;;;4.05;3.13;;;;;;;27.84;37.53;99784.03;5071348;28;20508;-76
2023/07/09 09:04:29;;;;;;;3.65;3.17;;;;;;;27.94;37.39;99771.47;5071127;28;20454;-77
2023/07/09 09:07:02;;;;;;;4.25;2.80;;;;;;;27.75;36.54;99717.91;5071062;28;20028;-77
2023/07/09 09:09:27;;;;;;;4.55;3.30;;;;;;;28.23;36.83;99774.97;5071063;28;20469;-77
2023/07/09 09:11:58;;;;;;;4.30;3.00;;;;;;;28.33;36.35;99765.94;5071152;28;20059;-77
2023/07/09 09:14:34;;;;;;;4.00;2.70;;;;;;;28.41;35.29;99766.09;5071060;28;20024;-77
2023/07/09 09:17:01;;;;;;;5.38;2.90;;;;;;;28.55;35.54;99771.63;5069727;28;20032;-78
2023/07/09 09:19:36;;;;;;;4.75;2.85;;;;;;;28.70;34.66;99771.44;5071246;28;20028;-76
2023/07/09 09:22:08;;;;;;;3.75;2.83;;;;;;;28.86;34.04;99772.06;5070752;28;20029;-77
2023/07/09 09:24:53;;;;;;;5.88;3.10;;;;;;;29.02;33.29;99768.06;5074831;28;20104;-78
2023/07/09 09:27:19;;;;;;;5.18;3.58;;;;;;;28.58;33.79;99681.41;5075056;28;20024;-78
2023/07/09 09:29:44;;;;;;;4.43;3.20;;;;;;;29.14;33.54;99747.78;5074862;28;20085;-77
2023/07/09 09:32:22;;;;;;;3.58;2.88;;;;;;;29.31;33.54;99759.72;5073706;28;20489;-78
2023/07/09 09:34:47;;;;;;;4.13;2.80;;;;;;;28.53;33.10;99640.72;5074708;28;20024;-76
2023/07/09 09:37:23;;;;;;;4.10;3.13;;;;;;;28.93;33.14;99661.06;5074860;28;20113;-77
2023/07/09 09:39:49;;;;;;;2.97;2.42;;;;;;;29.75;32.47;99765.84;5074827;28;20024;-77
2023/07/09 09:42:14;;;;;;;3.42;2.55;;;;;;;28.97;31.53;99591.41;5074489;28;20017;-75
2023/07/09 09:44:44;;;;;;;4.22;2.88;;;;;;;30.22;31.28;99757.34;5074518;28;20021;-75
2023/07/09 09:47:11;;;;;;;3.70;2.60;;;;;;;30.35;30.93;99747.56;5074662;28;20115;-77
2023/07/09 09:49:40;;;;;;;3.42;2.90;;;;;;;30.51;31.16;99746.16;5074731;28;20028;-76
2023/07/09 09:52:14;;;;;;;4.45;3.00;;;;;;;30.75;31.06;99750.59;5074467;28;20036;-77
2023/07/09 09:54:44;;;;;;;5.53;2.85;;;;;;;30.26;30.00;99659.50;5073155;28;20110;-78
2023/07/09 09:57:17;;;;;;;3.65;3.00;;;;;;;30.66;29.65;99704.97;5073014;28;20486;-77
2023/07/09 09:59:42;;;;;;;4.10;2.63;;;;;;;30.98;30.08;99731.22;5074236;28;20044;-78
2023/07/09 10:02:19;;;;;;;3.53;3.00;;;;;;;30.61;29.78;99649.78;5074330;28;20030;-77
2023/07/09 10:04:45;;;;;;;3.88;3.10;;;;;;;31.30;30.02;99737.63;5074247;28;20116;-77
2023/07/09 10:07:35;;;;;;;3.65;2.95;;;;;;;31.31;29.68;99716.59;5074162;28;20024;-77
2023/07/09 10:10:04;;;;;;;3.78;2.90;;;;;;;31.55;29.36;99723.34;5073688;28;20115;-77
2023/07/09 10:12:42;;;;;;;3.10;2.80;;;;;;;31.51;28.58;99727.81;5074370;28;20034;-76
2023/07/09 10:15:13;;;;;;;4.15;3.20;;;;;;;31.70;28.64;99735.00;5073907;28;20036;-76
2023/07/09 10:17:47;;;;;;;;;;;;;;;31.71;28.68;99736.63;5074136;28;20100;-76
2023/07/09 10:20:45;;;;;;;4.25;2.83;;;;;;;31.73;28.05;99737.09;5072686;28;19912;-77
2023/07/09 10:23:35;;;;;;;3.53;2.80;;;;;;;31.76;28.82;99731.81;5073906;28;20464;-77
2023/07/09 10:26:11;;;;;;;4.07;2.50;;;;;;;31.95;28.50;99725.31;5073813;28;20118;-75
2023/07/09 10:28:57;;;;;;;4.20;3.33;;;;;;;32.05;28.44;99725.88;5073795;28;20098;-75
2023/07/09 10:31:55;;;;;;;3.15;2.58;;;;;;;32.16;27.68;99735.38;5073888;28;20035;-76
2023/07/09 10:34:23;;;;;;;3.78;2.60;;;;;;;32.34;27.95;99728.06;5073350;28;20029;-77
2023/07/09 10:37:27;;;;;;;5.40;3.25;;;;;;;32.46;27.93;99725.53;5073675;28;20060;-78
2023/07/09 10:39:56;;;;;;;3.67;3.08;;;;;;;32.29;27.89;99683.69;5069005;28;20040;-78
2023/07/09 10:42:28;;;;;;;4.50;3.40;;;;;;;32.63;27.76;99746.63;5073579;28;20063;-77
2023/07/09 10:45:22;;;;;;;3.35;2.65;;;;;;;32.69;25.86;99698.84;5073615;28;20024;-77
2023/07/09 10:47:53;;;;;;;3.80;3.10;;;;;;;32.50;27.68;99644.50;5073548;28;20111;-76
2023/07/09 10:50:27;;;;;;;;;;;;;;;33.05;26.58;99716.94;5073786;28;20508;-77
2023/07/09 10:52:57;;;;;;;6.43;3.38;;;;;;;32.99;27.30;99688.13;5073200;28;19908;-77
2023/07/09 10:55:41;;;;;;;2.75;2.55;;;;;;;33.26;24.96;99720.59;5073269;28;20028;-77
2023/07/09 10:58:30;;;;;;;4.05;2.97;;;;;;;33.19;25.84;99712.09;5072921;28;20053;-76
2023/07/09 11:00:57;;;;;;;3.20;2.90;;;;;;;33.41;26.27;99702.91;5073065;28;20032;-76
2023/07/09 11:03:43;;;;;;;3.15;2.78;;;;;;;33.07;25.29;99657.22;5072883;28;20024;-77
2023/07/09 11:06:22;;;;;;;3.58;3.25;;;;;;;33.60;25.02;99719.78;5071332;28;20403;-76
2023/07/09 11:08:52;;;;;;;5.20;2.88;;;;;;;33.71;25.39;99709.28;5071320;28;20484;-76
2023/07/09 11:11:37;;;;;;;3.03;2.72;;;;;;;33.29;24.59;99618.69;5072482;28;20047;-76
2023/07/09 11:14:23;;;;;;;4.07;3.60;;;;;;;34.07;24.90;99706.88;5072437;28;20059;-77
2023/07/09 11:16:49;;;;;;;5.30;4.80;;;;;;;33.81;25.43;99643.19;5072315;28;20059;-77
2023/07/09 11:19:20;;;;;;;3.35;3.05;;;;;;;34.31;24.48;99698.06;5072362;28;20028;-77
2023/07/09 11:22:00;;;;;;;3.72;2.90;;;;;;;34.03;24.20;99664.03;5072727;28;20035;-77
2023/07/09 11:25:11;;;;;;;3.00;2.70;;;;;;;34.20;24.24;99705.06;5072687;28;20085;-77
2023/07/09 11:28:06;;;;;;;3.42;2.40;;;;;;;34.20;23.62;99669.44;5050681;28;20035;-74
2023/07/09 11:30:33;;;;;;;2.60;2.40;;;;;;;33.87;24.50;99591.78;5050699;28;20032;-77
2023/07/09 11:33:04;;;;;;;2.92;2.67;;;;;;;34.01;24.04;99595.88;5066680;28;20489;-76
2023/07/09 11:35:42;;;;;;;;;;;;;;;34.68;23.85;99699.13;5076044;28;20162;-76
2023/07/09 11:38:15;;;;;;;2.60;2.20;;;;;;;34.89;24.22;99687.38;5080232;28;19908;-75
2023/07/09 11:40:55;;;;;;;3.20;2.90;;;;;;;35.06;23.59;99679.00;5072944;28;20515;-77
2023/07/09 11:43:47;;;;;;;4.50;2.90;;;;;;;35.02;22.84;99637.72;5070626;28;20117;-75